sensor_id;sensor_type;location;lat;lon;timestamp;P1;durP1;ratioP1;P2;durP2;ratioP2
59127;SDS011;44912;52.754;5.994;2022-10-23T00:02:01;22.52;;;15.35;;
59127;SDS011;44912;52.754;5.994;2022-10-23T00:04:26;25.00;;;15.45;;
59127;SDS011;44912;52.754;5.994;2022-10-23T00:06:52;25.35;;;16.58;;
59127;SDS011;44912;52.754;5.994;2022-10-23T00:09:19;23.17;;;15.00;;
59127;SDS011;44912;52.754;5.994;2022-10-23T00:11:46;20.77;;;14.75;;
59127;SDS011;44912;52.754;5.994;2022-10-23T00:14:14;19.90;;;14.65;;
59127;SDS011;44912;52.754;5.994;2022-10-23T00:16:42;22.05;;;15.00;;
59127;SDS011;44912;52.754;5.994;2022-10-23T00:19:07;22.33;;;14.65;;
59127;SDS011;44912;52.754;5.994;2022-10-23T00:21:33;21.92;;;15.63;;
59127;SDS011;44912;52.754;5.994;2022-10-23T00:23:59;20.92;;;15.07;;
59127;SDS011;44912;52.754;5.994;2022-10-23T00:26:24;22.63;;;14.82;;
59127;SDS011;44912;52.754;5.994;2022-10-23T00:28:51;20.25;;;14.77;;
59127;SDS011;44912;52.754;5.994;2022-10-23T00:31:18;21.05;;;13.48;;
59127;SDS011;44912;52.754;5.994;2022-10-23T00:33:45;19.67;;;13.23;;
59127;SDS011;44912;52.754;5.994;2022-10-23T00:36:12;17.58;;;13.23;;
59127;SDS011;44912;52.754;5.994;2022-10-23T00:38:39;20.40;;;13.82;;
59127;SDS011;44912;52.754;5.994;2022-10-23T00:41:06;22.10;;;14.23;;
59127;SDS011;44912;52.754;5.994;2022-10-23T00:43:34;21.02;;;14.27;;
59127;SDS011;44912;52.754;5.994;2022-10-23T00:46:18;20.67;;;13.57;;
59127;SDS011;44912;52.754;5.994;2022-10-23T00:48:43;22.02;;;14.45;;
59127;SDS011;44912;52.754;5.994;2022-10-23T00:51:09;22.05;;;13.85;;
59127;SDS011;44912;52.754;5.994;2022-10-23T00:53:34;21.98;;;14.45;;
59127;SDS011;44912;52.754;5.994;2022-10-23T00:56:00;17.20;;;13.32;;
59127;SDS011;44912;52.754;5.994;2022-10-23T00:58:27;22.40;;;15.32;;
59127;SDS011;44912;52.754;5.994;2022-10-23T01:00:53;19.77;;;14.05;;
59127;SDS011;44912;52.754;5.994;2022-10-23T01:03:21;17.88;;;13.00;;
59127;SDS011;44912;52.754;5.994;2022-10-23T01:08:28;23.92;;;14.25;;
59127;SDS011;44912;52.754;5.994;2022-10-23T01:11:05;22.30;;;14.38;;
59127;SDS011;44912;52.754;5.994;2022-10-23T01:16:23;20.35;;;13.35;;
59127;SDS011;44912;52.754;5.994;2022-10-23T01:18:58;31.38;;;12.57;;
59127;SDS011;44912;52.754;5.994;2022-10-23T01:21:46;16.38;;;12.18;;
59127;SDS011;44912;52.754;5.994;2022-10-23T01:27:17;15.65;;;11.43;;
59127;SDS011;44912;52.754;5.994;2022-10-23T01:32:16;18.85;;;13.38;;
59127;SDS011;44912;52.754;5.994;2022-10-23T01:34:51;16.95;;;11.32;;
59127;SDS011;44912;52.754;5.994;2022-10-23T01:37:33;13.05;;;9.48;;
59127;SDS011;44912;52.754;5.994;2022-10-23T01:40:08;23.13;;;11.60;;
59127;SDS011;44912;52.754;5.994;2022-10-23T01:42:45;18.92;;;11.05;;
59127;SDS011;44912;52.754;5.994;2022-10-23T01:45:17;20.67;;;12.13;;
59127;SDS011;44912;52.754;5.994;2022-10-23T01:47:48;18.17;;;11.80;;
59127;SDS011;44912;52.754;5.994;2022-10-23T01:50:15;19.00;;;12.48;;
59127;SDS011;44912;52.754;5.994;2022-10-23T01:52:42;28.50;;;14.13;;
59127;SDS011;44912;52.754;5.994;2022-10-23T01:55:08;22.60;;;13.18;;
59127;SDS011;44912;52.754;5.994;2022-10-23T01:57:36;18.30;;;13.07;;
59127;SDS011;44912;52.754;5.994;2022-10-23T02:00:04;18.15;;;12.80;;
59127;SDS011;44912;52.754;5.994;2022-10-23T02:02:32;20.80;;;13.00;;
59127;SDS011;44912;52.754;5.994;2022-10-23T02:07:36;19.38;;;13.63;;
59127;SDS011;44912;52.754;5.994;2022-10-23T02:10:05;22.15;;;15.40;;
59127;SDS011;44912;52.754;5.994;2022-10-23T02:15:36;22.10;;;14.73;;
59127;SDS011;44912;52.754;5.994;2022-10-23T02:18:32;20.48;;;13.65;;
59127;SDS011;44912;52.754;5.994;2022-10-23T02:21:10;21.83;;;14.43;;
59127;SDS011;44912;52.754;5.994;2022-10-23T02:26:19;23.05;;;14.43;;
59127;SDS011;44912;52.754;5.994;2022-10-23T02:28:52;18.65;;;12.82;;
59127;SDS011;44912;52.754;5.994;2022-10-23T02:31:22;19.85;;;13.50;;
59127;SDS011;44912;52.754;5.994;2022-10-23T02:33:48;21.08;;;13.55;;
59127;SDS011;44912;52.754;5.994;2022-10-23T02:36:14;17.75;;;13.35;;
59127;SDS011;44912;52.754;5.994;2022-10-23T02:38:42;18.42;;;13.20;;
59127;SDS011;44912;52.754;5.994;2022-10-23T02:41:17;18.70;;;13.77;;
59127;SDS011;44912;52.754;5.994;2022-10-23T02:43:55;21.02;;;14.40;;
59127;SDS011;44912;52.754;5.994;2022-10-23T02:46:29;20.02;;;13.15;;
59127;SDS011;44912;52.754;5.994;2022-10-23T02:49:23;19.48;;;13.55;;
59127;SDS011;44912;52.754;5.994;2022-10-23T02:57:28;17.08;;;13.40;;
59127;SDS011;44912;52.754;5.994;2022-10-23T02:59:59;19.52;;;12.73;;
59127;SDS011;44912;52.754;5.994;2022-10-23T03:02:39;20.30;;;13.07;;
59127;SDS011;44912;52.754;5.994;2022-10-23T03:05:16;18.17;;;13.27;;
59127;SDS011;44912;52.754;5.994;2022-10-23T03:07:46;19.60;;;13.90;;
59127;SDS011;44912;52.754;5.994;2022-10-23T03:10:13;18.60;;;13.00;;
59127;SDS011;44912;52.754;5.994;2022-10-23T03:12:39;21.13;;;14.70;;
59127;SDS011;44912;52.754;5.994;2022-10-23T03:15:05;17.92;;;13.10;;
59127;SDS011;44912;52.754;5.994;2022-10-23T03:17:31;18.77;;;12.30;;
59127;SDS011;44912;52.754;5.994;2022-10-23T03:19:57;19.35;;;13.23;;
59127;SDS011;44912;52.754;5.994;2022-10-23T03:22:23;16.73;;;13.35;;
59127;SDS011;44912;52.754;5.994;2022-10-23T03:24:48;22.05;;;13.38;;
59127;SDS011;44912;52.754;5.994;2022-10-23T03:27:14;17.58;;;12.90;;
59127;SDS011;44912;52.754;5.994;2022-10-23T03:29:40;20.35;;;12.85;;
59127;SDS011;44912;52.754;5.994;2022-10-23T03:32:06;18.83;;;13.73;;
59127;SDS011;44912;52.754;5.994;2022-10-23T03:34:31;19.20;;;12.80;;
59127;SDS011;44912;52.754;5.994;2022-10-23T03:36:57;20.83;;;12.65;;
59127;SDS011;44912;52.754;5.994;2022-10-23T03:39:22;19.85;;;13.07;;
59127;SDS011;44912;52.754;5.994;2022-10-23T03:41:48;21.45;;;12.93;;
59127;SDS011;44912;52.754;5.994;2022-10-23T03:44:13;19.27;;;13.30;;
59127;SDS011;44912;52.754;5.994;2022-10-23T03:46:39;17.23;;;12.18;;
59127;SDS011;44912;52.754;5.994;2022-10-23T03:49:05;18.45;;;12.82;;
59127;SDS011;44912;52.754;5.994;2022-10-23T03:51:30;18.65;;;13.00;;
59127;SDS011;44912;52.754;5.994;2022-10-23T03:53:56;20.92;;;13.35;;
59127;SDS011;44912;52.754;5.994;2022-10-23T03:56:21;20.35;;;12.77;;
59127;SDS011;44912;52.754;5.994;2022-10-23T03:58:47;21.98;;;13.93;;
59127;SDS011;44912;52.754;5.994;2022-10-23T04:01:13;22.67;;;13.45;;
59127;SDS011;44912;52.754;5.994;2022-10-23T04:03:38;21.83;;;12.85;;
59127;SDS011;44912;52.754;5.994;2022-10-23T04:06:04;20.67;;;13.30;;
59127;SDS011;44912;52.754;5.994;2022-10-23T04:08:29;21.75;;;13.15;;
59127;SDS011;44912;52.754;5.994;2022-10-23T04:10:55;21.13;;;13.38;;
59127;SDS011;44912;52.754;5.994;2022-10-23T04:13:21;19.35;;;14.15;;
59127;SDS011;44912;52.754;5.994;2022-10-23T04:15:47;19.55;;;12.45;;
59127;SDS011;44912;52.754;5.994;2022-10-23T04:18:16;20.10;;;12.75;;
59127;SDS011;44912;52.754;5.994;2022-10-23T04:20:42;20.05;;;13.15;;
59127;SDS011;44912;52.754;5.994;2022-10-23T04:25:50;19.98;;;12.77;;
59127;SDS011;44912;52.754;5.994;2022-10-23T04:28:15;19.40;;;12.85;;
59127;SDS011;44912;52.754;5.994;2022-10-23T04:30:44;18.02;;;13.35;;
59127;SDS011;44912;52.754;5.994;2022-10-23T04:33:24;22.65;;;13.55;;
59127;SDS011;44912;52.754;5.994;2022-10-23T04:35:50;20.92;;;14.52;;
59127;SDS011;44912;52.754;5.994;2022-10-23T04:38:42;20.00;;;14.10;;
59127;SDS011;44912;52.754;5.994;2022-10-23T04:41:07;22.05;;;13.80;;
59127;SDS011;44912;52.754;5.994;2022-10-23T04:43:40;23.60;;;13.20;;
59127;SDS011;44912;52.754;5.994;2022-10-23T04:46:06;23.65;;;14.15;;
59127;SDS011;44912;52.754;5.994;2022-10-23T04:48:32;22.90;;;14.52;;
59127;SDS011;44912;52.754;5.994;2022-10-23T04:50:59;19.85;;;13.98;;
59127;SDS011;44912;52.754;5.994;2022-10-23T04:53:26;23.77;;;14.65;;
59127;SDS011;44912;52.754;5.994;2022-10-23T04:55:53;23.35;;;14.52;;
59127;SDS011;44912;52.754;5.994;2022-10-23T04:58:20;23.02;;;14.43;;
59127;SDS011;44912;52.754;5.994;2022-10-23T05:00:47;24.30;;;15.48;;
59127;SDS011;44912;52.754;5.994;2022-10-23T05:03:13;23.00;;;14.73;;
59127;SDS011;44912;52.754;5.994;2022-10-23T05:05:46;25.45;;;14.77;;
59127;SDS011;44912;52.754;5.994;2022-10-23T05:08:32;22.55;;;14.15;;
59127;SDS011;44912;52.754;5.994;2022-10-23T05:11:12;23.17;;;14.88;;
59127;SDS011;44912;52.754;5.994;2022-10-23T05:13:41;24.35;;;14.23;;
59127;SDS011;44912;52.754;5.994;2022-10-23T05:16:06;20.25;;;13.57;;
59127;SDS011;44912;52.754;5.994;2022-10-23T05:18:33;21.75;;;13.68;;
59127;SDS011;44912;52.754;5.994;2022-10-23T05:21:09;22.65;;;13.93;;
59127;SDS011;44912;52.754;5.994;2022-10-23T05:23:45;21.73;;;13.60;;
59127;SDS011;44912;52.754;5.994;2022-10-23T05:26:11;21.55;;;14.63;;
59127;SDS011;44912;52.754;5.994;2022-10-23T05:28:46;20.67;;;14.23;;
59127;SDS011;44912;52.754;5.994;2022-10-23T05:31:20;21.85;;;14.00;;
59127;SDS011;44912;52.754;5.994;2022-10-23T05:33:53;20.88;;;14.55;;
59127;SDS011;44912;52.754;5.994;2022-10-23T05:36:20;23.23;;;15.25;;
59127;SDS011;44912;52.754;5.994;2022-10-23T05:38:47;20.98;;;12.70;;
59127;SDS011;44912;52.754;5.994;2022-10-23T05:41:13;19.00;;;12.48;;
59127;SDS011;44912;52.754;5.994;2022-10-23T05:43:38;21.35;;;13.27;;
59127;SDS011;44912;52.754;5.994;2022-10-23T05:46:04;21.73;;;13.48;;
59127;SDS011;44912;52.754;5.994;2022-10-23T05:48:30;22.10;;;13.73;;
59127;SDS011;44912;52.754;5.994;2022-10-23T05:51:04;21.80;;;12.98;;
59127;SDS011;44912;52.754;5.994;2022-10-23T05:53:33;20.83;;;13.05;;
59127;SDS011;44912;52.754;5.994;2022-10-23T05:56:05;22.73;;;13.68;;
59127;SDS011;44912;52.754;5.994;2022-10-23T05:58:32;21.08;;;13.93;;
59127;SDS011;44912;52.754;5.994;2022-10-23T06:00:58;20.00;;;13.52;;
59127;SDS011;44912;52.754;5.994;2022-10-23T06:03:23;24.05;;;14.02;;
59127;SDS011;44912;52.754;5.994;2022-10-23T06:05:49;25.80;;;14.10;;
59127;SDS011;44912;52.754;5.994;2022-10-23T06:08:16;21.60;;;13.80;;
59127;SDS011;44912;52.754;5.994;2022-10-23T06:10:42;22.52;;;12.90;;
59127;SDS011;44912;52.754;5.994;2022-10-23T06:13:08;21.08;;;13.23;;
59127;SDS011;44912;52.754;5.994;2022-10-23T06:15:34;21.58;;;13.05;;
59127;SDS011;44912;52.754;5.994;2022-10-23T06:18:03;23.35;;;13.60;;
59127;SDS011;44912;52.754;5.994;2022-10-23T06:20:29;19.67;;;13.32;;
59127;SDS011;44912;52.754;5.994;2022-10-23T06:22:54;19.35;;;12.52;;
59127;SDS011;44912;52.754;5.994;2022-10-23T06:25:20;17.25;;;12.50;;
59127;SDS011;44912;52.754;5.994;2022-10-23T06:27:45;22.02;;;12.80;;
59127;SDS011;44912;52.754;5.994;2022-10-23T06:30:11;22.58;;;12.70;;
59127;SDS011;44912;52.754;5.994;2022-10-23T06:32:37;19.58;;;12.48;;
59127;SDS011;44912;52.754;5.994;2022-10-23T06:35:03;20.33;;;11.82;;
59127;SDS011;44912;52.754;5.994;2022-10-23T06:37:29;23.65;;;12.32;;
59127;SDS011;44912;52.754;5.994;2022-10-23T06:39:57;17.95;;;11.88;;
59127;SDS011;44912;52.754;5.994;2022-10-23T06:42:22;21.98;;;12.00;;
59127;SDS011;44912;52.754;5.994;2022-10-23T06:44:48;18.25;;;12.05;;
59127;SDS011;44912;52.754;5.994;2022-10-23T06:47:14;21.30;;;12.20;;
59127;SDS011;44912;52.754;5.994;2022-10-23T06:49:39;20.30;;;12.07;;
59127;SDS011;44912;52.754;5.994;2022-10-23T06:52:05;20.63;;;12.05;;
59127;SDS011;44912;52.754;5.994;2022-10-23T06:54:30;21.50;;;11.73;;
59127;SDS011;44912;52.754;5.994;2022-10-23T06:56:56;20.30;;;11.80;;
59127;SDS011;44912;52.754;5.994;2022-10-23T06:59:22;19.52;;;11.20;;
59127;SDS011;44912;52.754;5.994;2022-10-23T07:01:47;19.13;;;12.07;;
59127;SDS011;44912;52.754;5.994;2022-10-23T07:04:13;23.02;;;12.23;;
59127;SDS011;44912;52.754;5.994;2022-10-23T07:06:39;18.95;;;11.38;;
59127;SDS011;44912;52.754;5.994;2022-10-23T07:09:04;19.17;;;12.15;;
59127;SDS011;44912;52.754;5.994;2022-10-23T07:11:30;21.13;;;11.82;;
59127;SDS011;44912;52.754;5.994;2022-10-23T07:13:55;18.42;;;11.95;;
59127;SDS011;44912;52.754;5.994;2022-10-23T07:16:22;20.27;;;12.00;;
59127;SDS011;44912;52.754;5.994;2022-10-23T07:18:48;20.67;;;12.13;;
59127;SDS011;44912;52.754;5.994;2022-10-23T07:21:17;20.58;;;11.95;;
59127;SDS011;44912;52.754;5.994;2022-10-23T07:23:43;20.63;;;12.05;;
59127;SDS011;44912;52.754;5.994;2022-10-23T07:26:10;18.80;;;11.88;;
59127;SDS011;44912;52.754;5.994;2022-10-23T07:28:40;18.05;;;11.25;;
59127;SDS011;44912;52.754;5.994;2022-10-23T07:31:07;20.48;;;12.57;;
59127;SDS011;44912;52.754;5.994;2022-10-23T07:33:34;19.42;;;12.38;;
59127;SDS011;44912;52.754;5.994;2022-10-23T07:35:59;17.25;;;11.10;;
59127;SDS011;44912;52.754;5.994;2022-10-23T07:38:27;18.70;;;11.70;;
59127;SDS011;44912;52.754;5.994;2022-10-23T07:40:53;18.05;;;11.00;;
59127;SDS011;44912;52.754;5.994;2022-10-23T07:43:21;20.80;;;11.73;;
59127;SDS011;44912;52.754;5.994;2022-10-23T07:45:47;16.50;;;11.40;;
59127;SDS011;44912;52.754;5.994;2022-10-23T07:48:13;20.27;;;11.45;;
59127;SDS011;44912;52.754;5.994;2022-10-23T07:50:40;17.33;;;11.48;;
59127;SDS011;44912;52.754;5.994;2022-10-23T07:53:05;17.35;;;12.07;;
59127;SDS011;44912;52.754;5.994;2022-10-23T07:55:31;19.52;;;11.55;;
59127;SDS011;44912;52.754;5.994;2022-10-23T07:57:56;17.15;;;11.23;;
59127;SDS011;44912;52.754;5.994;2022-10-23T08:00:22;19.60;;;12.00;;
59127;SDS011;44912;52.754;5.994;2022-10-23T08:02:47;16.45;;;11.07;;
59127;SDS011;44912;52.754;5.994;2022-10-23T08:05:13;17.10;;;11.52;;
59127;SDS011;44912;52.754;5.994;2022-10-23T08:07:39;17.75;;;11.40;;
59127;SDS011;44912;52.754;5.994;2022-10-23T08:10:04;21.27;;;11.55;;
59127;SDS011;44912;52.754;5.994;2022-10-23T08:12:30;19.20;;;12.32;;
59127;SDS011;44912;52.754;5.994;2022-10-23T08:14:56;19.05;;;11.95;;
59127;SDS011;44912;52.754;5.994;2022-10-23T08:17:21;18.92;;;12.10;;
59127;SDS011;44912;52.754;5.994;2022-10-23T08:19:47;20.10;;;12.38;;
59127;SDS011;44912;52.754;5.994;2022-10-23T08:22:13;21.38;;;12.00;;
59127;SDS011;44912;52.754;5.994;2022-10-23T08:24:39;18.25;;;12.18;;
59127;SDS011;44912;52.754;5.994;2022-10-23T08:27:04;17.15;;;11.30;;
59127;SDS011;44912;52.754;5.994;2022-10-23T08:29:30;20.02;;;11.68;;
59127;SDS011;44912;52.754;5.994;2022-10-23T08:31:55;17.08;;;10.80;;
59127;SDS011;44912;52.754;5.994;2022-10-23T08:34:21;17.67;;;11.68;;
59127;SDS011;44912;52.754;5.994;2022-10-23T08:36:49;19.85;;;12.18;;
59127;SDS011;44912;52.754;5.994;2022-10-23T08:39:14;19.65;;;11.45;;
59127;SDS011;44912;52.754;5.994;2022-10-23T08:41:41;16.40;;;10.45;;
59127;SDS011;44912;52.754;5.994;2022-10-23T08:44:13;20.23;;;11.70;;
59127;SDS011;44912;52.754;5.994;2022-10-23T08:49:38;18.83;;;11.75;;
59127;SDS011;44912;52.754;5.994;2022-10-23T08:52:35;20.58;;;11.55;;
59127;SDS011;44912;52.754;5.994;2022-10-23T09:00:43;16.42;;;10.98;;
59127;SDS011;44912;52.754;5.994;2022-10-23T09:03:11;14.93;;;10.77;;
59127;SDS011;44912;52.754;5.994;2022-10-23T09:09:07;14.60;;;10.02;;
59127;SDS011;44912;52.754;5.994;2022-10-23T09:11:37;17.95;;;10.68;;
59127;SDS011;44912;52.754;5.994;2022-10-23T09:14:22;15.52;;;9.57;;
59127;SDS011;44912;52.754;5.994;2022-10-23T09:19:53;15.52;;;9.48;;
59127;SDS011;44912;52.754;5.994;2022-10-23T09:24:51;13.88;;;9.27;;
59127;SDS011;44912;52.754;5.994;2022-10-23T09:27:16;17.70;;;9.43;;
59127;SDS011;44912;52.754;5.994;2022-10-23T09:29:46;14.18;;;9.32;;
59127;SDS011;44912;52.754;5.994;2022-10-23T09:32:14;19.17;;;9.95;;
59127;SDS011;44912;52.754;5.994;2022-10-23T09:34:49;16.67;;;9.18;;
59127;SDS011;44912;52.754;5.994;2022-10-23T09:37:22;13.80;;;8.30;;
59127;SDS011;44912;52.754;5.994;2022-10-23T09:39:59;18.02;;;9.35;;
59127;SDS011;44912;52.754;5.994;2022-10-23T09:42:48;13.63;;;8.55;;
59127;SDS011;44912;52.754;5.994;2022-10-23T09:45:22;14.77;;;8.50;;
59127;SDS011;44912;52.754;5.994;2022-10-23T09:51:01;12.88;;;8.82;;
59127;SDS011;44912;52.754;5.994;2022-10-23T09:53:31;17.17;;;9.23;;
59127;SDS011;44912;52.754;5.994;2022-10-23T09:56:03;14.68;;;8.77;;
59127;SDS011;44912;52.754;5.994;2022-10-23T09:58:58;14.45;;;8.10;;
59127;SDS011;44912;52.754;5.994;2022-10-23T10:01:54;13.05;;;8.27;;
59127;SDS011;44912;52.754;5.994;2022-10-23T10:04:35;13.15;;;8.15;;
59127;SDS011;44912;52.754;5.994;2022-10-23T10:07:03;14.15;;;8.40;;
59127;SDS011;44912;52.754;5.994;2022-10-23T10:09:31;14.82;;;8.60;;
59127;SDS011;44912;52.754;5.994;2022-10-23T10:12:01;13.02;;;8.23;;
59127;SDS011;44912;52.754;5.994;2022-10-23T10:20:06;16.15;;;8.20;;
59127;SDS011;44912;52.754;5.994;2022-10-23T10:23:06;14.10;;;8.18;;
59127;SDS011;44912;52.754;5.994;2022-10-23T10:25:59;14.85;;;8.30;;
59127;SDS011;44912;52.754;5.994;2022-10-23T10:28:37;12.40;;;7.55;;
59127;SDS011;44912;52.754;5.994;2022-10-23T10:31:37;14.75;;;7.60;;
59127;SDS011;44912;52.754;5.994;2022-10-23T10:34:28;14.82;;;7.93;;
59127;SDS011;44912;52.754;5.994;2022-10-23T10:53:24;10.80;;;6.50;;
59127;SDS011;44912;52.754;5.994;2022-10-23T10:56:02;11.20;;;6.68;;
59127;SDS011;44912;52.754;5.994;2022-10-23T10:58:45;11.93;;;6.95;;
59127;SDS011;44912;52.754;5.994;2022-10-23T11:01:29;12.27;;;6.65;;
59127;SDS011;44912;52.754;5.994;2022-10-23T11:04:10;16.00;;;7.38;;
59127;SDS011;44912;52.754;5.994;2022-10-23T11:06:42;13.07;;;6.75;;
59127;SDS011;44912;52.754;5.994;2022-10-23T11:09:16;11.07;;;6.38;;
59127;SDS011;44912;52.754;5.994;2022-10-23T11:11:45;13.18;;;6.90;;
59127;SDS011;44912;52.754;5.994;2022-10-23T11:14:21;12.95;;;6.90;;
59127;SDS011;44912;52.754;5.994;2022-10-23T11:17:01;14.40;;;7.00;;
59127;SDS011;44912;52.754;5.994;2022-10-23T11:19:28;11.88;;;6.32;;
59127;SDS011;44912;52.754;5.994;2022-10-23T11:24:55;12.15;;;6.60;;
59127;SDS011;44912;52.754;5.994;2022-10-23T11:30:23;13.90;;;7.18;;
59127;SDS011;44912;52.754;5.994;2022-10-23T11:36:05;13.00;;;6.40;;
59127;SDS011;44912;52.754;5.994;2022-10-23T11:38:44;11.75;;;6.32;;
59127;SDS011;44912;52.754;5.994;2022-10-23T11:41:16;13.00;;;5.97;;
59127;SDS011;44912;52.754;5.994;2022-10-23T11:43:48;11.63;;;5.97;;
59127;SDS011;44912;52.754;5.994;2022-10-23T11:48:51;11.07;;;6.20;;
59127;SDS011;44912;52.754;5.994;2022-10-23T11:54:04;9.73;;;5.70;;
59127;SDS011;44912;52.754;5.994;2022-10-23T11:56:38;11.15;;;6.50;;
59127;SDS011;44912;52.754;5.994;2022-10-23T11:59:32;12.35;;;5.88;;
59127;SDS011;44912;52.754;5.994;2022-10-23T12:02:26;12.23;;;5.88;;
59127;SDS011;44912;52.754;5.994;2022-10-23T12:04:55;14.07;;;5.65;;
59127;SDS011;44912;52.754;5.994;2022-10-23T12:07:30;10.82;;;6.28;;
59127;SDS011;44912;52.754;5.994;2022-10-23T12:10:04;13.23;;;5.47;;
59127;SDS011;44912;52.754;5.994;2022-10-23T12:12:41;11.05;;;5.68;;
59127;SDS011;44912;52.754;5.994;2022-10-23T12:15:19;11.55;;;5.55;;
59127;SDS011;44912;52.754;5.994;2022-10-23T12:17:46;10.95;;;5.53;;
59127;SDS011;44912;52.754;5.994;2022-10-23T12:28:42;9.32;;;4.78;;
59127;SDS011;44912;52.754;5.994;2022-10-23T12:31:32;9.95;;;4.97;;
59127;SDS011;44912;52.754;5.994;2022-10-23T12:34:30;9.32;;;5.20;;
59127;SDS011;44912;52.754;5.994;2022-10-23T12:37:31;11.27;;;4.88;;
59127;SDS011;44912;52.754;5.994;2022-10-23T12:40:19;8.65;;;5.00;;
59127;SDS011;44912;52.754;5.994;2022-10-23T12:42:52;9.80;;;4.63;;
59127;SDS011;44912;52.754;5.994;2022-10-23T12:45:21;9.13;;;4.57;;
59127;SDS011;44912;52.754;5.994;2022-10-23T12:47:52;8.80;;;4.10;;
59127;SDS011;44912;52.754;5.994;2022-10-23T12:50:28;9.32;;;4.88;;
59127;SDS011;44912;52.754;5.994;2022-10-23T12:53:02;12.07;;;4.43;;
59127;SDS011;44912;52.754;5.994;2022-10-23T12:55:33;9.38;;;4.57;;
59127;SDS011;44912;52.754;5.994;2022-10-23T12:58:21;12.85;;;4.53;;
59127;SDS011;44912;52.754;5.994;2022-10-23T13:00:55;11.63;;;4.28;;
59127;SDS011;44912;52.754;5.994;2022-10-23T13:03:22;11.07;;;4.50;;
59127;SDS011;44912;52.754;5.994;2022-10-23T13:05:50;9.15;;;4.18;;
59127;SDS011;44912;52.754;5.994;2022-10-23T13:08:18;8.65;;;4.40;;
59127;SDS011;44912;52.754;5.994;2022-10-23T13:10:45;8.98;;;4.75;;
59127;SDS011;44912;52.754;5.994;2022-10-23T13:13:12;9.75;;;4.63;;
59127;SDS011;44912;52.754;5.994;2022-10-23T13:15:47;9.07;;;4.20;;
59127;SDS011;44912;52.754;5.994;2022-10-23T13:18:14;7.43;;;4.10;;
59127;SDS011;44912;52.754;5.994;2022-10-23T13:20:41;8.43;;;3.88;;
59127;SDS011;44912;52.754;5.994;2022-10-23T13:26:04;9.50;;;4.05;;
59127;SDS011;44912;52.754;5.994;2022-10-23T13:28:44;11.07;;;4.32;;
59127;SDS011;44912;52.754;5.994;2022-10-23T13:33:46;8.18;;;3.78;;
59127;SDS011;44912;52.754;5.994;2022-10-23T13:36:28;8.50;;;4.20;;
59127;SDS011;44912;52.754;5.994;2022-10-23T13:41:24;8.20;;;3.88;;
59127;SDS011;44912;52.754;5.994;2022-10-23T13:43:51;8.60;;;3.63;;
59127;SDS011;44912;52.754;5.994;2022-10-23T13:46:17;8.65;;;3.80;;
59127;SDS011;44912;52.754;5.994;2022-10-23T13:48:44;8.77;;;3.60;;
59127;SDS011;44912;52.754;5.994;2022-10-23T13:53:43;8.50;;;3.65;;
59127;SDS011;44912;52.754;5.994;2022-10-23T13:56:09;8.77;;;3.80;;
59127;SDS011;44912;52.754;5.994;2022-10-23T13:58:36;6.45;;;3.15;;
59127;SDS011;44912;52.754;5.994;2022-10-23T14:01:02;10.40;;;3.63;;
59127;SDS011;44912;52.754;5.994;2022-10-23T14:03:28;8.70;;;3.83;;
59127;SDS011;44912;52.754;5.994;2022-10-23T14:05:53;7.95;;;4.05;;
59127;SDS011;44912;52.754;5.994;2022-10-23T14:08:19;12.57;;;3.95;;
59127;SDS011;44912;52.754;5.994;2022-10-23T14:10:45;8.43;;;3.40;;
59127;SDS011;44912;52.754;5.994;2022-10-23T14:13:11;7.22;;;3.58;;
59127;SDS011;44912;52.754;5.994;2022-10-23T14:15:37;9.02;;;3.60;;
59127;SDS011;44912;52.754;5.994;2022-10-23T14:18:02;10.93;;;3.65;;
59127;SDS011;44912;52.754;5.994;2022-10-23T14:20:28;9.45;;;3.60;;
59127;SDS011;44912;52.754;5.994;2022-10-23T14:22:54;7.65;;;3.60;;
59127;SDS011;44912;52.754;5.994;2022-10-23T14:25:20;10.55;;;3.15;;
59127;SDS011;44912;52.754;5.994;2022-10-23T14:27:45;7.85;;;3.10;;
59127;SDS011;44912;52.754;5.994;2022-10-23T14:30:11;10.77;;;3.75;;
59127;SDS011;44912;52.754;5.994;2022-10-23T14:32:37;7.70;;;3.10;;
59127;SDS011;44912;52.754;5.994;2022-10-23T14:35:03;11.45;;;3.58;;
59127;SDS011;44912;52.754;5.994;2022-10-23T14:37:32;7.97;;;3.40;;
59127;SDS011;44912;52.754;5.994;2022-10-23T14:39:58;8.82;;;3.13;;
59127;SDS011;44912;52.754;5.994;2022-10-23T14:42:24;8.35;;;3.20;;
59127;SDS011;44912;52.754;5.994;2022-10-23T14:44:51;8.32;;;3.03;;
59127;SDS011;44912;52.754;5.994;2022-10-23T14:47:17;9.25;;;3.72;;
59127;SDS011;44912;52.754;5.994;2022-10-23T14:49:43;8.30;;;3.00;;
59127;SDS011;44912;52.754;5.994;2022-10-23T14:52:13;9.27;;;2.83;;
59127;SDS011;44912;52.754;5.994;2022-10-23T14:54:38;7.82;;;3.10;;
59127;SDS011;44912;52.754;5.994;2022-10-23T14:57:04;6.68;;;2.80;;
59127;SDS011;44912;52.754;5.994;2022-10-23T14:59:30;5.57;;;2.70;;
59127;SDS011;44912;52.754;5.994;2022-10-23T15:01:55;8.65;;;3.30;;
59127;SDS011;44912;52.754;5.994;2022-10-23T15:04:21;7.53;;;3.22;;
59127;SDS011;44912;52.754;5.994;2022-10-23T15:06:46;9.98;;;3.50;;
59127;SDS011;44912;52.754;5.994;2022-10-23T15:09:12;7.25;;;3.42;;
59127;SDS011;44912;52.754;5.994;2022-10-23T15:11:38;7.43;;;3.00;;
59127;SDS011;44912;52.754;5.994;2022-10-23T15:14:04;8.18;;;2.90;;
59127;SDS011;44912;52.754;5.994;2022-10-23T15:16:30;5.88;;;2.80;;
59127;SDS011;44912;52.754;5.994;2022-10-23T15:18:55;8.07;;;2.78;;
59127;SDS011;44912;52.754;5.994;2022-10-23T15:21:21;5.85;;;2.70;;
59127;SDS011;44912;52.754;5.994;2022-10-23T15:23:47;9.18;;;3.88;;
59127;SDS011;44912;52.754;5.994;2022-10-23T15:26:14;6.95;;;2.78;;
59127;SDS011;44912;52.754;5.994;2022-10-23T15:28:45;9.10;;;3.22;;
59127;SDS011;44912;52.754;5.994;2022-10-23T15:34:06;5.18;;;2.50;;
59127;SDS011;44912;52.754;5.994;2022-10-23T15:36:33;8.00;;;3.10;;
59127;SDS011;44912;52.754;5.994;2022-10-23T15:38:59;7.10;;;2.90;;
59127;SDS011;44912;52.754;5.994;2022-10-23T15:41:26;6.93;;;3.00;;
59127;SDS011;44912;52.754;5.994;2022-10-23T15:43:53;6.50;;;2.67;;
59127;SDS011;44912;52.754;5.994;2022-10-23T15:46:19;6.75;;;2.47;;
59127;SDS011;44912;52.754;5.994;2022-10-23T15:48:45;8.00;;;2.65;;
59127;SDS011;44912;52.754;5.994;2022-10-23T15:51:10;7.88;;;2.97;;
59127;SDS011;44912;52.754;5.994;2022-10-23T15:53:36;8.57;;;3.17;;
59127;SDS011;44912;52.754;5.994;2022-10-23T15:56:01;6.80;;;2.90;;
59127;SDS011;44912;52.754;5.994;2022-10-23T15:58:27;6.63;;;3.33;;
59127;SDS011;44912;52.754;5.994;2022-10-23T16:00:52;7.75;;;3.10;;
59127;SDS011;44912;52.754;5.994;2022-10-23T16:03:18;7.05;;;2.67;;
59127;SDS011;44912;52.754;5.994;2022-10-23T16:05:43;10.52;;;3.67;;
59127;SDS011;44912;52.754;5.994;2022-10-23T16:08:09;11.02;;;3.80;;
59127;SDS011;44912;52.754;5.994;2022-10-23T16:10:38;11.30;;;3.40;;
59127;SDS011;44912;52.754;5.994;2022-10-23T16:13:05;10.30;;;3.17;;
59127;SDS011;44912;52.754;5.994;2022-10-23T16:15:33;6.95;;;2.80;;
59127;SDS011;44912;52.754;5.994;2022-10-23T16:17:59;6.40;;;3.05;;
59127;SDS011;44912;52.754;5.994;2022-10-23T16:20:25;9.40;;;3.15;;
59127;SDS011;44912;52.754;5.994;2022-10-23T16:22:51;7.90;;;4.10;;
59127;SDS011;44912;52.754;5.994;2022-10-23T16:25:16;8.68;;;3.00;;
59127;SDS011;44912;52.754;5.994;2022-10-23T16:27:42;8.07;;;2.80;;
59127;SDS011;44912;52.754;5.994;2022-10-23T16:30:07;9.05;;;3.17;;
59127;SDS011;44912;52.754;5.994;2022-10-23T16:32:37;7.95;;;2.65;;